createdAt,value
2022-08-22T00:02:14.720Z,5.05
2022-08-22T00:02:48.855Z,4.60
2022-08-22T00:02:55.384Z,4.80
2022-08-22T00:02:57.377Z,4.38
2022-08-22T00:03:04.819Z,3.30
2022-08-22T00:04:52.514Z,4.70
2022-08-22T00:07:28.406Z,4.75
2022-08-22T00:10:04.276Z,5.00
2022-08-22T00:12:42.971Z,5.20
2022-08-22T00:15:31.555Z,5.15
2022-08-22T00:18:12.101Z,4.82
2022-08-22T00:23:18.285Z,4.68
2022-08-22T00:25:59.227Z,5.10
2022-08-22T00:28:35.604Z,4.82
2022-08-22T00:31:16.168Z,5.40
2022-08-22T00:34:02.169Z,5.38
2022-08-22T00:36:34.660Z,5.13
2022-08-22T00:39:11.714Z,5.45
2022-08-22T00:42:29.028Z,5.40
2022-08-22T00:45:31.786Z,5.20
2022-08-22T00:48:24.648Z,5.35
2022-08-22T00:51:10.220Z,5.68
2022-08-22T00:53:57.096Z,5.10
2022-08-22T00:56:52.726Z,5.47
2022-08-22T00:59:46.026Z,5.70
2022-08-22T01:02:27.393Z,5.30
2022-08-22T01:05:10.937Z,5.75
2022-08-22T01:07:54.285Z,5.60
2022-08-22T01:10:46.009Z,5.80
2022-08-22T01:13:31.383Z,5.68
2022-08-22T01:16:16.944Z,5.28
2022-08-22T01:19:12.579Z,5.75
2022-08-22T01:22:13.464Z,6.07
2022-08-22T01:25:26.836Z,5.63
2022-08-22T01:28:39.674Z,5.55
2022-08-22T01:31:55.937Z,5.55
2022-08-22T01:34:52.471Z,5.80
2022-08-22T01:37:43.706Z,6.07
2022-08-22T01:40:53.709Z,5.88
2022-08-22T01:43:51.301Z,5.30
2022-08-22T01:46:36.646Z,5.75
2022-08-22T01:49:15.157Z,6.43
2022-08-22T01:51:52.233Z,6.10
2022-08-22T01:54:35.897Z,5.80
2022-08-22T01:57:08.104Z,5.97
2022-08-22T01:59:42.250Z,6.05
2022-08-22T02:02:27.727Z,6.15
2022-08-22T02:05:03.799Z,6.13
2022-08-22T02:07:45.084Z,6.20
2022-08-22T02:10:21.017Z,6.43
2022-08-22T02:12:57.901Z,6.60
2022-08-22T02:15:36.574Z,6.50
2022-08-22T02:18:15.036Z,6.15
2022-08-22T02:20:58.448Z,6.40
2022-08-22T02:23:36.993Z,6.25
2022-08-22T02:26:09.313Z,6.07
2022-08-22T02:28:56.663Z,6.13
2022-08-22T02:31:39.803Z,6.25
2022-08-22T02:34:35.368Z,6.65
2022-08-22T02:37:14.077Z,6.25
2022-08-22T02:39:51.844Z,5.97
2022-08-22T02:42:28.156Z,6.80
2022-08-22T02:45:06.815Z,6.38
2022-08-22T02:47:42.447Z,6.63
2022-08-22T02:50:20.097Z,6.00
2022-08-22T02:55:36.441Z,6.53
2022-08-22T02:58:11.863Z,7.00
2022-08-22T03:00:49.792Z,6.10
2022-08-22T03:03:22.277Z,6.45
2022-08-22T03:06:01.429Z,6.45
2022-08-22T03:08:35.522Z,6.72
2022-08-22T03:11:29.960Z,6.53
2022-08-22T03:14:08.908Z,6.32
2022-08-22T03:16:41.722Z,7.00
2022-08-22T03:19:18.748Z,6.85
2022-08-22T03:22:03.397Z,6.82
2022-08-22T03:24:38.557Z,7.05
2022-08-22T03:27:15.042Z,7.00
2022-08-22T03:30:03.620Z,7.05
2022-08-22T03:32:51.770Z,6.38
2022-08-22T03:35:37.299Z,6.63
2022-08-22T03:38:18.750Z,6.78
2022-08-22T03:41:21.884Z,6.40
2022-08-22T03:44:06.372Z,6.15
2022-08-22T03:47:17.387Z,6.60
2022-08-22T03:50:23.486Z,6.90
2022-08-22T03:53:19.874Z,6.70
2022-08-22T03:56:28.037Z,6.50
2022-08-22T03:59:28.523Z,6.93
2022-08-22T04:02:43.482Z,6.63
2022-08-22T04:05:45.508Z,6.90
2022-08-22T04:08:47.036Z,7.15
2022-08-22T04:11:44.420Z,6.45
2022-08-22T04:14:51.666Z,7.10
2022-08-22T04:17:47.467Z,6.70
2022-08-22T04:20:40.340Z,6.82
2022-08-22T04:23:28.464Z,6.70
2022-08-22T04:26:10.757Z,7.43
2022-08-22T04:28:46.129Z,7.13
2022-08-22T04:31:17.626Z,6.80
2022-08-22T04:33:52.896Z,7.15
2022-08-22T04:36:24.299Z,7.20
2022-08-22T04:38:59.413Z,7.10
2022-08-22T04:41:46.652Z,6.63
2022-08-22T04:44:18.337Z,7.00
2022-08-22T04:46:53.678Z,6.68
2022-08-22T04:49:30.556Z,6.53
2022-08-22T04:52:06.188Z,6.60
2022-08-22T04:54:44.660Z,8.63
2022-08-22T04:57:23.864Z,6.97
2022-08-22T04:59:52.345Z,7.10
2022-08-22T05:02:27.598Z,6.88
2022-08-22T05:05:03.989Z,6.47
2022-08-22T05:07:38.603Z,6.40
2022-08-22T05:10:13.852Z,5.70
2022-08-22T05:12:47.013Z,5.97
2022-08-22T05:15:23.134Z,6.05
2022-08-22T05:17:54.820Z,6.13
2022-08-22T05:20:27.236Z,6.28
2022-08-22T05:23:00.766Z,6.90
2022-08-22T05:25:33.621Z,6.28
2022-08-22T05:28:12.072Z,6.40
2022-08-22T05:30:41.402Z,6.10
2022-08-22T05:33:19.506Z,6.22
2022-08-22T05:35:57.982Z,6.45
2022-08-22T05:38:32.167Z,6.18
2022-08-22T05:41:06.423Z,5.78
2022-08-22T05:43:38.416Z,6.07
2022-08-22T05:46:10.074Z,5.90
2022-08-22T05:48:43.657Z,5.53
2022-08-22T05:51:21.441Z,5.32
2022-08-22T05:56:26.336Z,5.20
2022-08-22T05:59:00.017Z,5.63
2022-08-22T06:01:33.884Z,5.68
2022-08-22T06:04:16.567Z,5.85
2022-08-22T06:06:53.566Z,5.63
2022-08-22T06:09:34.937Z,5.93
2022-08-22T06:12:13.854Z,5.30
2022-08-22T06:14:58.485Z,5.05
2022-08-22T06:17:32.184Z,5.30
2022-08-22T06:20:01.070Z,6.00
2022-08-22T06:22:36.455Z,5.13
2022-08-22T06:25:10.216Z,5.53
2022-08-22T06:27:38.828Z,5.20
2022-08-22T06:30:08.963Z,5.10
2022-08-22T06:32:58.356Z,4.93
2022-08-22T06:35:53.716Z,5.03
2022-08-22T06:38:26.263Z,5.18
2022-08-22T06:40:55.751Z,4.72
2022-08-22T06:43:26.822Z,5.22
2022-08-22T06:45:55.687Z,4.80
2022-08-22T06:48:24.928Z,4.80
2022-08-22T06:50:59.597Z,5.03
2022-08-22T06:53:35.827Z,5.10
2022-08-22T06:56:05.682Z,4.03
2022-08-22T06:58:37.906Z,4.68
2022-08-22T07:01:12.019Z,4.40
2022-08-22T07:03:45.730Z,4.85
2022-08-22T07:06:16.949Z,5.13
2022-08-22T07:08:47.460Z,4.30
2022-08-22T07:11:21.813Z,4.13
2022-08-22T07:13:54.778Z,3.50
2022-08-22T07:16:34.208Z,4.63
2022-08-22T07:19:03.012Z,3.47
2022-08-22T07:21:42.741Z,4.20
2022-08-22T07:24:16.883Z,3.58
2022-08-22T07:26:57.764Z,4.63
2022-08-22T07:29:33.385Z,4.50
2022-08-22T07:32:11.421Z,4.13
2022-08-22T07:34:53.844Z,4.10
2022-08-22T07:37:33.762Z,3.33
2022-08-22T07:40:15.516Z,3.13
2022-08-22T07:42:49.179Z,2.70
2022-08-22T07:45:21.615Z,2.75
2022-08-22T07:48:03.393Z,2.72
2022-08-22T07:50:34.223Z,2.85
2022-08-22T07:53:10.995Z,2.80
2022-08-22T07:55:49.796Z,2.42
2022-08-22T07:58:19.304Z,2.70
2022-08-22T08:00:49.729Z,2.55
2022-08-22T08:03:21.687Z,2.67
2022-08-22T08:05:50.168Z,2.60
2022-08-22T08:08:24.280Z,2.17
2022-08-22T08:10:57.203Z,2.35
2022-08-22T08:13:30.801Z,2.45
2022-08-22T08:16:00.011Z,2.50
2022-08-22T08:18:31.373Z,2.28
2022-08-22T08:21:03.511Z,2.17
2022-08-22T08:23:40.666Z,1.83
2022-08-22T08:26:15.750Z,1.52
2022-08-22T08:28:49.166Z,2.05
2022-08-22T08:31:24.899Z,1.60
2022-08-22T08:34:00.966Z,1.90
2022-08-22T08:36:50.261Z,1.65
2022-08-22T08:39:24.156Z,1.63
2022-08-22T08:42:26.540Z,1.90
2022-08-22T08:45:25.122Z,1.70
2022-08-22T08:48:21.123Z,1.60
2022-08-22T08:51:06.609Z,1.60
2022-08-22T08:54:05.150Z,1.50
2022-08-22T08:56:39.884Z,1.75
2022-08-22T08:59:42.421Z,1.80
2022-08-22T09:02:43.765Z,2.08
2022-08-22T09:05:36.042Z,2.08
2022-08-22T09:08:34.110Z,1.42
2022-08-22T09:11:31.162Z,2.20
2022-08-22T09:14:17.194Z,1.20
2022-08-22T09:19:47.564Z,1.13
2022-08-22T09:22:50.857Z,1.55
2022-08-22T09:25:36.772Z,1.10
2022-08-22T09:28:15.111Z,1.20
2022-08-22T09:31:21.944Z,1.30
2022-08-22T09:34:05.890Z,1.17
2022-08-22T09:36:44.010Z,1.17
2022-08-22T09:39:18.019Z,1.33
2022-08-22T09:41:56.151Z,1.33
2022-08-22T09:44:39.612Z,1.30
2022-08-22T09:47:24.676Z,1.38
2022-08-22T09:50:05.771Z,1.70
2022-08-22T09:53:02.976Z,1.60
2022-08-22T09:55:43.621Z,1.60
2022-08-22T09:58:23.581Z,1.70
2022-08-22T10:00:56.964Z,1.73
2022-08-22T10:03:52.189Z,1.90
2022-08-22T10:06:29.580Z,1.60
2022-08-22T10:09:05.236Z,2.53
2022-08-22T10:11:43.295Z,1.55
2022-08-22T10:14:22.417Z,1.55
2022-08-22T10:17:00.558Z,1.90
2022-08-22T10:19:33.730Z,1.80
2022-08-22T10:22:29.838Z,1.38
2022-08-22T10:25:23.871Z,1.27
2022-08-22T10:28:06.864Z,1.38
2022-08-22T10:30:48.394Z,1.10
2022-08-22T10:33:24.946Z,0.90
2022-08-22T10:36:04.971Z,1.02
2022-08-22T10:38:43.894Z,1.20
2022-08-22T10:41:25.881Z,1.20
2022-08-22T10:44:04.130Z,1.25
2022-08-22T10:46:38.905Z,1.30
2022-08-22T10:49:19.565Z,0.90
2022-08-22T10:51:50.757Z,1.20
2022-08-22T10:54:36.871Z,1.00
2022-08-22T10:57:20.842Z,1.10
2022-08-22T10:59:57.143Z,1.40
2022-08-22T11:02:55.660Z,1.03
2022-08-22T11:05:42.688Z,1.30
2022-08-22T11:08:49.129Z,1.20
2022-08-22T11:11:40.524Z,1.10
2022-08-22T11:14:32.534Z,1.10
2022-08-22T11:17:30.951Z,1.00
2022-08-22T11:20:20.573Z,1.13
2022-08-22T11:23:12.448Z,1.10
2022-08-22T11:25:54.194Z,1.00
2022-08-22T11:28:56.434Z,1.08
2022-08-22T11:31:36.713Z,0.98
2022-08-22T11:34:14.274Z,1.00
2022-08-22T11:36:54.514Z,1.02
2022-08-22T11:39:28.741Z,1.20
2022-08-22T11:42:06.132Z,1.00
2022-08-22T11:44:50.160Z,1.00
2022-08-22T11:47:26.910Z,0.90
2022-08-22T11:50:00.511Z,0.82
2022-08-22T11:52:41.392Z,1.10
2022-08-22T11:55:33.223Z,1.17
2022-08-22T11:58:23.278Z,1.10
2022-08-22T12:01:03.796Z,1.20
2022-08-22T12:04:00.518Z,1.08
2022-08-22T12:06:55.945Z,1.00
2022-08-22T12:09:35.812Z,0.93
2022-08-22T12:12:21.266Z,2.17
2022-08-22T12:15:00.303Z,1.00
2022-08-22T12:18:21.431Z,0.98
2022-08-22T12:21:02.373Z,1.20
2022-08-22T12:23:56.514Z,1.17
2022-08-22T12:26:34.049Z,1.13
2022-08-22T12:29:18.977Z,0.90
2022-08-22T12:32:34.970Z,1.10
2022-08-22T12:35:29.956Z,1.02
2022-08-22T12:38:29.248Z,1.10
2022-08-22T12:41:14.727Z,1.20
2022-08-22T12:44:05.038Z,1.20
2022-08-22T12:46:46.670Z,0.90
2022-08-22T12:49:36.584Z,1.05
2022-08-22T12:52:21.104Z,1.10
2022-08-22T12:55:09.463Z,1.10
2022-08-22T12:57:54.438Z,0.93
2022-08-22T13:00:31.979Z,0.95
2022-08-22T13:03:03.710Z,1.10
2022-08-22T13:05:40.692Z,1.10
2022-08-22T13:08:17.655Z,1.25
2022-08-22T13:10:48.715Z,0.98
2022-08-22T13:13:31.646Z,1.05
2022-08-22T13:16:07.394Z,0.90
2022-08-22T13:18:44.789Z,0.98
2022-08-22T13:21:18.803Z,0.82
2022-08-22T13:23:58.266Z,1.10
2022-08-22T13:26:32.151Z,1.02
2022-08-22T13:32:00.333Z,1.10
2022-08-22T13:34:39.789Z,0.98
2022-08-22T13:37:14.555Z,1.20
2022-08-22T13:39:48.871Z,1.10
2022-08-22T13:42:30.708Z,1.38
2022-08-22T13:45:04.571Z,0.95
2022-08-22T13:47:39.475Z,1.15
2022-08-22T13:50:14.555Z,1.20
2022-08-22T13:52:52.474Z,1.00
2022-08-22T13:55:31.024Z,1.00
2022-08-22T13:58:03.018Z,0.93
2022-08-22T14:01:15.676Z,1.05
2022-08-22T14:03:49.842Z,1.20
2022-08-22T14:06:37.495Z,1.30
2022-08-22T14:09:14.446Z,1.40
2022-08-22T14:12:12.131Z,1.40
2022-08-22T14:14:43.609Z,1.10
2022-08-22T14:17:20.918Z,1.10
2022-08-22T14:19:59.324Z,1.00
2022-08-22T14:22:34.991Z,1.30
2022-08-22T14:25:07.105Z,1.20
2022-08-22T14:27:40.039Z,1.10
2022-08-22T14:30:17.006Z,0.90
2022-08-22T14:32:51.350Z,1.60
2022-08-22T14:35:37.508Z,0.98
2022-08-22T14:38:29.932Z,1.02
2022-08-22T14:41:03.315Z,1.33
2022-08-22T14:43:50.778Z,1.10
2022-08-22T14:46:26.492Z,1.15
2022-08-22T14:49:16.183Z,1.00
2022-08-22T14:51:50.853Z,1.25
2022-08-22T14:54:22.846Z,1.20
2022-08-22T14:57:01.493Z,0.95
2022-08-22T14:59:39.308Z,1.00
2022-08-22T15:02:11.219Z,1.20
2022-08-22T15:04:42.415Z,1.30
2022-08-22T15:07:13.910Z,1.00
2022-08-22T15:09:49.630Z,1.00
2022-08-22T15:12:26.642Z,1.20
2022-08-22T15:17:36.719Z,1.33
2022-08-22T15:20:14.292Z,1.27
2022-08-22T15:22:46.724Z,1.30
2022-08-22T15:25:18.782Z,1.17
2022-08-22T15:27:50.133Z,1.65
2022-08-22T15:30:36.924Z,1.08
2022-08-22T15:33:24.332Z,1.05
2022-08-22T15:35:55.331Z,1.40
2022-08-22T15:38:30.749Z,1.20
2022-08-22T15:41:39.377Z,1.20
2022-08-22T15:44:17.223Z,1.35
2022-08-22T15:47:05.439Z,1.13
2022-08-22T15:49:51.767Z,1.25
2022-08-22T15:52:28.397Z,1.20
2022-08-22T15:55:23.377Z,1.33
2022-08-22T15:58:13.069Z,1.25
2022-08-22T16:00:46.090Z,1.08
2022-08-22T16:03:27.446Z,1.20
2022-08-22T16:05:59.340Z,1.10
2022-08-22T16:08:33.128Z,1.20
2022-08-22T16:11:33.718Z,1.38
2022-08-22T16:14:24.349Z,1.13
2022-08-22T16:16:57.185Z,1.17
2022-08-22T16:19:28.335Z,1.20
2022-08-22T16:22:13.249Z,1.45
2022-08-22T16:25:02.963Z,1.20
2022-08-22T16:27:31.418Z,1.55
2022-08-22T16:30:08.779Z,1.33
2022-08-22T16:32:38.275Z,1.30
2022-08-22T16:35:08.304Z,1.00
2022-08-22T16:37:51.244Z,1.30
2022-08-22T16:40:23.984Z,0.95
2022-08-22T16:43:09.588Z,1.30
2022-08-22T16:45:45.264Z,1.65
2022-08-22T16:48:35.868Z,1.00
2022-08-22T16:51:10.127Z,1.30
2022-08-22T16:54:10.432Z,1.50
2022-08-22T16:56:53.911Z,1.20
2022-08-22T16:59:44.411Z,1.20
2022-08-22T17:02:37.965Z,1.08
2022-08-22T17:05:21.027Z,1.20
2022-08-22T17:08:02.309Z,1.00
2022-08-22T17:10:56.681Z,1.00
2022-08-22T17:13:38.498Z,1.35
2022-08-22T17:16:21.407Z,1.20
2022-08-22T17:19:12.094Z,1.10
2022-08-22T17:21:51.886Z,1.30
2022-08-22T17:24:34.539Z,1.13
2022-08-22T17:27:08.926Z,1.20
2022-08-22T17:30:01.862Z,1.15
2022-08-22T17:32:42.955Z,1.35
2022-08-22T17:35:21.604Z,1.20
2022-08-22T17:38:02.540Z,1.38
2022-08-22T17:40:42.911Z,1.50
2022-08-22T17:43:48.664Z,1.13
2022-08-22T17:46:36.684Z,1.20
2022-08-22T17:51:49.337Z,1.30
2022-08-22T17:54:21.868Z,1.25
2022-08-22T17:57:05.116Z,1.45
2022-08-22T17:59:39.196Z,1.20
2022-08-22T18:02:16.250Z,1.30
2022-08-22T18:04:52.301Z,1.55
2022-08-22T18:07:31.212Z,1.20
2022-08-22T18:10:07.864Z,1.33
2022-08-22T18:12:43.445Z,1.50
2022-08-22T18:15:22.349Z,1.63
2022-08-22T18:17:55.144Z,1.25
2022-08-22T18:20:28.484Z,1.40
2022-08-22T18:23:03.150Z,1.50
2022-08-22T18:25:39.425Z,1.70
2022-08-22T18:28:15.331Z,1.45
2022-08-22T18:30:57.264Z,1.45
2022-08-22T18:33:33.874Z,1.70
2022-08-22T18:36:09.961Z,1.90
2022-08-22T18:38:46.567Z,1.40
2022-08-22T18:41:23.232Z,1.30
2022-08-22T18:43:56.050Z,1.42
2022-08-22T18:46:33.981Z,1.67
2022-08-22T18:49:15.572Z,1.27
2022-08-22T18:51:44.778Z,1.35
2022-08-22T18:54:32.948Z,1.40
2022-08-22T18:57:08.782Z,1.48
2022-08-22T19:00:00.242Z,1.77
2022-08-22T19:03:04.394Z,1.30
2022-08-22T19:05:53.920Z,1.60
2022-08-22T19:08:56.658Z,1.73
2022-08-22T19:11:38.772Z,1.60
2022-08-22T19:14:48.821Z,1.90
2022-08-22T19:17:58.763Z,1.58
2022-08-22T19:20:49.329Z,1.83
2022-08-22T19:23:43.393Z,1.52
2022-08-22T19:26:35.439Z,1.73
2022-08-22T19:29:10.621Z,1.85
2022-08-22T19:32:01.855Z,1.67
2022-08-22T19:34:41.313Z,1.70
2022-08-22T19:37:33.085Z,1.83
2022-08-22T19:40:05.774Z,1.90
2022-08-22T19:42:39.777Z,1.83
2022-08-22T19:45:22.145Z,1.80
2022-08-22T19:47:58.205Z,1.73
2022-08-22T19:50:32.761Z,1.73
2022-08-22T19:53:28.545Z,1.70
2022-08-22T19:56:09.784Z,2.05
2022-08-22T19:58:52.256Z,1.77
2022-08-22T20:01:49.837Z,2.10
2022-08-22T20:04:48.826Z,1.65
2022-08-22T20:07:33.208Z,1.85
2022-08-22T20:10:17.636Z,1.70
2022-08-22T20:13:11.864Z,1.98
2022-08-22T20:16:02.223Z,1.83
2022-08-22T20:19:06.589Z,1.98
2022-08-22T20:21:44.389Z,2.28
2022-08-22T20:24:21.488Z,2.55
2022-08-22T20:27:12.827Z,2.20
2022-08-22T20:29:46.183Z,2.03
2022-08-22T20:32:19.009Z,1.90
2022-08-22T20:34:49.058Z,2.15
2022-08-22T20:37:40.387Z,1.60
2022-08-22T20:40:56.291Z,2.30
2022-08-22T20:43:24.580Z,2.40
2022-08-22T20:46:08.112Z,2.17
2022-08-22T20:48:43.669Z,2.05
2022-08-22T20:51:16.282Z,2.10
2022-08-22T20:53:51.995Z,2.45
2022-08-22T20:56:37.263Z,1.90
2022-08-22T20:59:27.189Z,2.38
2022-08-22T21:02:03.615Z,2.33
2022-08-22T21:04:42.692Z,2.40
2022-08-22T21:07:11.123Z,2.15
2022-08-22T21:09:56.760Z,2.17
2022-08-22T21:12:26.410Z,2.55
2022-08-22T21:14:57.499Z,3.85
2022-08-22T21:17:39.552Z,2.90
2022-08-22T21:20:19.034Z,2.80
2022-08-22T21:22:47.137Z,2.40
2022-08-22T21:25:17.775Z,2.50
2022-08-22T21:27:49.334Z,2.35
2022-08-22T21:30:24.562Z,2.72
2022-08-22T21:32:56.172Z,3.20
2022-08-22T21:35:30.224Z,4.18
2022-08-22T21:37:59.650Z,2.70
2022-08-22T21:40:33.336Z,3.10
2022-08-22T21:43:09.163Z,2.45
2022-08-22T21:45:43.140Z,2.40
2022-08-22T21:48:39.862Z,2.40
2022-08-22T21:51:25.447Z,5.72
2022-08-22T21:54:20.433Z,2.50
2022-08-22T21:56:49.879Z,4.75
2022-08-22T21:59:25.398Z,2.75
2022-08-22T22:01:53.907Z,3.55
2022-08-22T22:04:24.170Z,2.85
2022-08-22T22:06:52.204Z,2.53
2022-08-22T22:09:20.272Z,2.90
2022-08-22T22:11:48.391Z,2.78
2022-08-22T22:14:16.422Z,2.85
2022-08-22T22:16:45.936Z,9.40
2022-08-22T22:19:15.141Z,3.63
2022-08-22T22:21:43.185Z,4.05
2022-08-22T22:24:13.282Z,7.25
2022-08-22T22:26:41.352Z,3.47
2022-08-22T22:29:10.780Z,4.28
2022-08-22T22:31:38.982Z,3.33
2022-08-22T22:34:08.897Z,3.30
2022-08-22T22:36:37.313Z,2.78
2022-08-22T22:39:06.460Z,3.00
2022-08-22T22:41:34.670Z,2.95
2022-08-22T22:44:03.128Z,3.40
2022-08-22T22:46:31.985Z,3.22
2022-08-22T22:49:00.232Z,3.40
2022-08-22T22:51:29.627Z,3.63
2022-08-22T22:53:58.284Z,3.20
2022-08-22T22:56:26.564Z,3.10
2022-08-22T22:58:59.095Z,3.50
2022-08-22T23:01:59.191Z,3.38
2022-08-22T23:04:27.298Z,3.67
2022-08-22T23:07:03.254Z,3.83
2022-08-22T23:09:44.970Z,3.78
2022-08-22T23:12:25.691Z,6.05
2022-08-22T23:15:16.980Z,5.38
2022-08-22T23:17:45.916Z,3.90
2022-08-22T23:20:14.094Z,6.38
2022-08-22T23:22:45.120Z,4.00
2022-08-22T23:25:15.359Z,4.88
2022-08-22T23:27:43.649Z,10.23
2022-08-22T23:30:12.906Z,6.88
2022-08-22T23:32:40.994Z,4.32
2022-08-22T23:35:09.946Z,5.43
2022-08-22T23:37:38.131Z,7.53
2022-08-22T23:40:09.564Z,4.07
2022-08-22T23:42:37.942Z,4.10
2022-08-22T23:45:07.276Z,7.15
2022-08-22T23:47:35.632Z,3.90
2022-08-22T23:50:06.660Z,3.90
2022-08-22T23:52:35.058Z,3.90
2022-08-22T23:55:03.065Z,4.40
2022-08-22T23:57:32.654Z,3.97
